Bedford, Massachusetts
Current Conditions -  °F | °C
As of 1:56 AM on Thursday 27 Nov 2014 (Local Time) from KBED Reporting Station
Light Snow Light Snow  
Wind Chill: -5°   Ceiling: 800
Heat Index:   Visibility: 1.5mi
Dew Point: -1°   Wind: 12mph
Humidity: 96%   Direction: 330°NNW
Pressure: 29.73"   Gusts: NA
Location:  42.49°N, 71.28°W
Report Text: KBED 270656Z 33010KT 1 1/2SM -SN BR BKN008 OVC014 00/M01 A2973 RMK AO2 SLP084 P0001 T00001006
Loading
Personal Weather Stations






























Interactive Weather Map New forecast layout! Learn more

10-Day Weather Forecast

Advertisements
Track Severe Weather on mobile